createdAt,value
2023-11-30T00:00:52.590Z,-1.50
2023-11-30T00:03:28.856Z,-1.50
2023-11-30T00:06:03.443Z,-1.50
2023-11-30T00:08:37.808Z,-1.50
2023-11-30T00:11:07.881Z,-1.60
2023-11-30T00:13:41.953Z,-1.50
2023-11-30T00:16:10.195Z,-1.50
2023-11-30T00:18:45.953Z,-1.50
2023-11-30T00:21:13.881Z,-1.50
2023-11-30T00:23:48.785Z,-1.40
2023-11-30T00:26:17.065Z,-1.40
2023-11-30T00:28:51.780Z,-1.30
2023-11-30T00:31:19.646Z,-1.30
2023-11-30T00:33:54.847Z,-1.30
2023-11-30T00:36:22.945Z,-1.20
2023-11-30T00:38:57.928Z,-1.10
2023-11-30T00:41:25.778Z,-1.00
2023-11-30T00:43:59.811Z,-0.90
2023-11-30T00:46:27.702Z,-0.90
2023-11-30T00:49:03.917Z,-0.90
2023-11-30T00:51:31.730Z,-0.90
2023-11-30T00:54:05.828Z,-0.90
2023-11-30T00:56:33.667Z,-1.00
2023-11-30T00:59:07.808Z,-1.00
2023-11-30T01:01:35.845Z,-0.90
2023-11-30T01:04:11.798Z,-0.90
2023-11-30T01:06:45.875Z,-0.80
2023-11-30T01:09:21.839Z,-0.60
2023-11-30T01:11:49.757Z,-0.50
2023-11-30T01:14:23.783Z,-0.50
2023-11-30T01:16:51.696Z,-0.50
2023-11-30T01:19:28.003Z,-0.40
2023-11-30T01:21:55.799Z,-0.40
2023-11-30T01:24:29.965Z,-0.40
2023-11-30T01:26:57.868Z,-0.40
2023-11-30T01:29:31.808Z,-0.40
2023-11-30T01:31:59.673Z,-0.40
2023-11-30T01:34:35.940Z,-0.30
2023-11-30T01:37:03.889Z,-0.30
2023-11-30T01:39:37.806Z,-0.20
2023-11-30T01:42:06.197Z,-0.10
2023-11-30T01:44:40.814Z,-0.10
2023-11-30T01:47:09.959Z,-0.10
2023-11-30T01:49:48.822Z,-0.10
2023-11-30T01:52:16.644Z,-0.10
2023-11-30T01:54:50.808Z,0.00
2023-11-30T01:57:18.953Z,0.00
2023-11-30T01:59:55.828Z,0.00
2023-11-30T02:02:31.061Z,0.00
2023-11-30T02:05:07.880Z,0.00
2023-11-30T02:07:35.838Z,0.10
2023-11-30T02:10:10.829Z,0.10
2023-11-30T02:12:38.905Z,0.10
2023-11-30T02:15:14.936Z,0.10
2023-11-30T02:17:42.896Z,0.20
2023-11-30T02:20:20.027Z,0.10
2023-11-30T02:22:49.343Z,0.20
2023-11-30T02:25:23.828Z,0.20
2023-11-30T02:27:51.736Z,0.20
2023-11-30T02:30:25.987Z,0.30
2023-11-30T02:32:54.545Z,0.30
2023-11-30T02:35:22.920Z,0.30
2023-11-30T02:37:58.897Z,0.30
2023-11-30T02:40:28.092Z,0.30
2023-11-30T02:43:02.834Z,0.30
2023-11-30T02:45:33.375Z,0.30
2023-11-30T02:48:07.998Z,0.30
2023-11-30T02:50:36.020Z,0.30
2023-11-30T02:53:14.904Z,0.30
2023-11-30T02:55:42.802Z,0.30
2023-11-30T02:58:16.849Z,0.30
2023-11-30T03:00:44.903Z,0.30
2023-11-30T03:03:19.882Z,0.40
2023-11-30T03:05:53.955Z,0.50
2023-11-30T03:08:29.939Z,0.40
2023-11-30T03:10:58.845Z,0.50
2023-11-30T03:13:33.104Z,0.40
2023-11-30T03:16:01.011Z,0.50
2023-11-30T03:18:35.841Z,0.60
2023-11-30T03:21:04.058Z,0.60
2023-11-30T03:23:41.855Z,0.60
2023-11-30T03:26:09.899Z,0.60
2023-11-30T03:28:45.860Z,0.60
2023-11-30T03:31:13.764Z,0.60
2023-11-30T03:33:48.936Z,0.60
2023-11-30T03:36:17.169Z,0.60
2023-11-30T03:38:52.899Z,0.60
2023-11-30T03:41:20.857Z,0.50
2023-11-30T03:43:54.873Z,0.60
2023-11-30T03:46:25.379Z,0.60
2023-11-30T03:49:02.244Z,0.60
2023-11-30T03:51:30.272Z,0.40
2023-11-30T03:54:05.875Z,0.40
2023-11-30T03:56:34.209Z,0.40
2023-11-30T03:59:08.901Z,0.40
2023-11-30T04:01:56.971Z,0.30
2023-11-30T04:04:31.965Z,0.40
2023-11-30T04:07:27.875Z,0.40
2023-11-30T04:10:03.863Z,0.30
2023-11-30T04:12:31.764Z,0.10
2023-11-30T04:15:05.920Z,0.00
2023-11-30T04:17:34.029Z,-0.10
2023-11-30T04:20:08.856Z,-0.10
2023-11-30T04:22:36.847Z,-0.10
2023-11-30T04:25:13.858Z,-0.20
2023-11-30T04:27:41.855Z,-0.20
2023-11-30T04:30:15.862Z,-0.30
2023-11-30T04:32:43.767Z,-0.30
2023-11-30T04:35:17.876Z,-0.30
2023-11-30T04:37:46.091Z,-0.40
2023-11-30T04:40:22.927Z,-0.40
2023-11-30T04:42:51.155Z,-0.40
2023-11-30T04:45:25.884Z,-0.40
2023-11-30T04:47:54.006Z,-0.40
2023-11-30T04:50:28.857Z,-0.40
2023-11-30T04:52:56.658Z,-0.40
2023-11-30T04:55:32.871Z,-0.40
2023-11-30T04:58:00.713Z,-0.40
2023-11-30T05:00:34.884Z,-0.40
2023-11-30T05:05:56.868Z,-0.40
2023-11-30T05:08:24.727Z,-0.40
2023-11-30T05:11:00.856Z,-0.40
2023-11-30T05:13:28.694Z,-0.40
2023-11-30T05:16:02.849Z,-0.40
2023-11-30T05:18:30.745Z,-0.50
2023-11-30T05:21:04.906Z,-0.50
2023-11-30T05:23:32.744Z,-0.50
2023-11-30T05:26:08.876Z,-0.50
2023-11-30T05:28:36.664Z,-0.50
2023-11-30T05:31:10.957Z,-0.50
2023-11-30T05:33:38.914Z,-0.60
2023-11-30T05:36:15.917Z,-0.60
2023-11-30T05:38:43.740Z,-0.60
2023-11-30T05:41:19.875Z,-0.60
2023-11-30T05:43:47.661Z,-0.60
2023-11-30T05:46:22.068Z,-0.60
2023-11-30T05:48:49.974Z,-0.70
2023-11-30T05:51:24.870Z,-0.70
2023-11-30T05:53:52.782Z,-0.70
2023-11-30T05:56:28.972Z,-0.70
2023-11-30T05:58:56.853Z,-0.80
2023-11-30T06:01:24.647Z,-0.80
2023-11-30T06:03:59.134Z,-0.80
2023-11-30T06:06:27.118Z,-0.90
2023-11-30T06:09:01.954Z,-0.90
2023-11-30T06:11:31.614Z,-0.90
2023-11-30T06:14:05.922Z,-0.90
2023-11-30T06:16:33.808Z,-0.90
2023-11-30T06:19:08.902Z,-1.00
2023-11-30T06:21:36.717Z,-1.00
2023-11-30T06:24:11.905Z,-1.00
2023-11-30T06:26:42.882Z,-1.00
2023-11-30T06:29:18.878Z,-1.00
2023-11-30T06:31:46.746Z,-1.00
2023-11-30T06:34:20.894Z,-1.00
2023-11-30T06:36:48.728Z,-1.00
2023-11-30T06:39:22.897Z,-1.00
2023-11-30T06:41:53.745Z,-1.10
2023-11-30T06:44:28.903Z,-1.00
2023-11-30T06:46:56.796Z,-1.10
2023-11-30T06:49:30.886Z,-1.10
2023-11-30T06:52:00.937Z,-1.10
2023-11-30T06:54:36.005Z,-1.10
2023-11-30T06:57:05.798Z,-1.10
2023-11-30T06:59:40.942Z,-1.20
2023-11-30T07:02:29.901Z,-1.20
2023-11-30T07:05:03.913Z,-1.20
2023-11-30T07:07:36.379Z,-1.20
2023-11-30T07:10:11.882Z,-1.30
2023-11-30T07:12:41.118Z,-1.30
2023-11-30T07:15:16.926Z,-1.30
2023-11-30T07:17:44.873Z,-1.30
2023-11-30T07:20:19.885Z,-1.20
2023-11-30T07:22:48.772Z,-1.30
2023-11-30T07:25:22.963Z,-1.30
2023-11-30T07:27:56.060Z,-1.40
2023-11-30T07:30:29.940Z,-1.40
2023-11-30T07:32:57.794Z,-1.40
2023-11-30T07:35:33.876Z,-1.40
2023-11-30T07:38:01.696Z,-1.50
2023-11-30T07:40:35.902Z,-1.50
2023-11-30T07:43:05.128Z,-1.50
2023-11-30T07:45:39.983Z,-1.50
2023-11-30T07:48:07.990Z,-1.50
2023-11-30T07:50:42.904Z,-1.60
2023-11-30T07:53:12.383Z,-1.60
2023-11-30T07:55:46.919Z,-1.60
2023-11-30T07:58:16.104Z,-1.60
2023-11-30T08:00:50.889Z,-1.50
2023-11-30T08:03:25.651Z,-1.50
2023-11-30T08:05:59.879Z,-1.40
2023-11-30T08:08:27.888Z,-1.30
2023-11-30T08:11:02.613Z,-1.30
2023-11-30T08:13:34.506Z,-1.30
2023-11-30T08:16:09.960Z,-1.20
2023-11-30T08:18:37.883Z,-1.20
2023-11-30T08:21:13.947Z,-1.20
2023-11-30T08:23:43.426Z,-1.20
2023-11-30T08:26:18.900Z,-1.10
2023-11-30T08:28:50.515Z,-1.10
2023-11-30T08:31:24.952Z,-1.10
2023-11-30T08:33:52.812Z,-1.10
2023-11-30T08:36:26.928Z,-1.00
2023-11-30T08:38:54.820Z,-1.00
2023-11-30T08:41:28.947Z,-1.00
2023-11-30T08:43:58.329Z,-1.00
2023-11-30T08:46:32.940Z,-1.00
2023-11-30T08:49:00.802Z,-1.00
2023-11-30T08:51:35.926Z,-0.90
2023-11-30T08:54:03.935Z,-0.90
2023-11-30T08:56:38.949Z,-0.90
2023-11-30T08:59:08.201Z,-0.80
2023-11-30T09:01:44.000Z,-0.80
2023-11-30T09:04:18.055Z,-0.80
2023-11-30T09:06:53.069Z,-0.90
2023-11-30T09:09:20.906Z,-0.90
2023-11-30T09:11:54.921Z,-0.90
2023-11-30T09:14:24.232Z,-0.90
2023-11-30T09:16:58.954Z,-0.90
2023-11-30T09:19:26.779Z,-0.80
2023-11-30T09:22:01.924Z,-0.80
2023-11-30T09:24:29.770Z,-0.60
2023-11-30T09:27:04.115Z,-0.40
2023-11-30T09:29:33.406Z,-0.30
2023-11-30T09:32:08.015Z,-0.30
2023-11-30T09:34:35.858Z,-0.30
2023-11-30T09:37:09.919Z,-0.30
2023-11-30T09:39:37.762Z,-0.20
2023-11-30T09:42:13.949Z,-0.30
2023-11-30T09:44:43.082Z,-0.40
2023-11-30T09:47:18.043Z,-0.40
2023-11-30T09:49:45.866Z,-0.40
2023-11-30T09:52:20.929Z,-0.40
2023-11-30T09:54:53.791Z,-0.40
2023-11-30T09:57:27.945Z,-0.40
2023-11-30T09:59:57.110Z,-0.50
2023-11-30T10:02:32.942Z,-0.40
2023-11-30T10:05:09.641Z,-0.10
2023-11-30T10:07:44.954Z,0.10
2023-11-30T10:10:12.888Z,0.20
2023-11-30T10:12:48.987Z,0.30
2023-11-30T10:15:18.815Z,0.00
2023-11-30T10:17:54.028Z,-0.10
2023-11-30T10:20:35.027Z,0.00
2023-11-30T10:23:18.036Z,-0.10
2023-11-30T10:25:48.275Z,-0.10
2023-11-30T10:28:22.917Z,-0.20
2023-11-30T10:30:55.431Z,-0.30
2023-11-30T10:33:32.025Z,-0.30
2023-11-30T10:36:04.814Z,-0.20
2023-11-30T10:38:41.001Z,-0.20
2023-11-30T10:41:14.476Z,-0.30
2023-11-30T10:43:55.925Z,-0.20
2023-11-30T10:46:27.097Z,-0.40
2023-11-30T10:49:04.105Z,-0.60
2023-11-30T10:51:33.151Z,-0.50
2023-11-30T10:54:14.944Z,-0.50
2023-11-30T10:56:42.881Z,-0.50
2023-11-30T10:59:20.927Z,-0.50
2023-11-30T11:01:51.637Z,-0.50
2023-11-30T11:04:33.062Z,-0.40
2023-11-30T11:07:04.767Z,-0.50
2023-11-30T11:09:49.964Z,-0.50
2023-11-30T11:12:21.792Z,-0.50
2023-11-30T11:14:56.920Z,-0.50
2023-11-30T11:17:28.064Z,-0.60
2023-11-30T11:20:01.986Z,-0.50
2023-11-30T11:22:31.736Z,-0.60
2023-11-30T11:25:08.076Z,-0.60
2023-11-30T11:27:35.922Z,-0.70
2023-11-30T11:30:14.024Z,-0.70
2023-11-30T11:32:44.052Z,-0.60
2023-11-30T11:35:19.082Z,-0.60
2023-11-30T11:37:47.722Z,-0.50
2023-11-30T11:40:24.938Z,-0.40
2023-11-30T11:42:52.759Z,-0.40
2023-11-30T11:45:29.029Z,-0.30
2023-11-30T11:47:58.263Z,-0.40
2023-11-30T11:50:32.973Z,-0.30
2023-11-30T11:53:01.550Z,-0.40
2023-11-30T11:55:35.949Z,-0.30
2023-11-30T11:58:03.857Z,-0.30
2023-11-30T12:00:37.973Z,-0.40
2023-11-30T12:03:14.106Z,-0.30
2023-11-30T12:05:55.982Z,-0.40
2023-11-30T12:08:31.250Z,-0.40
2023-11-30T12:11:05.965Z,-0.50
2023-11-30T12:13:38.563Z,-0.70
2023-11-30T12:16:14.054Z,-0.60
2023-11-30T12:18:43.412Z,-0.60
2023-11-30T12:21:18.013Z,-0.70
2023-11-30T12:23:45.882Z,-0.70
2023-11-30T12:26:19.962Z,-0.80
2023-11-30T12:28:47.842Z,-0.80
2023-11-30T12:31:23.185Z,-0.90
2023-11-30T12:33:53.213Z,-0.80
2023-11-30T12:36:27.980Z,-0.90
2023-11-30T12:38:56.055Z,-0.90
2023-11-30T12:41:30.975Z,-1.00
2023-11-30T12:43:58.844Z,-1.00
2023-11-30T12:46:32.986Z,-1.00
2023-11-30T12:49:02.704Z,-1.00
2023-11-30T12:51:37.991Z,-1.00
2023-11-30T12:54:05.874Z,-1.00
2023-11-30T12:56:40.948Z,-1.00
2023-11-30T12:59:08.753Z,-1.10
2023-11-30T13:01:43.043Z,-1.20
2023-11-30T13:04:19.100Z,-1.20
2023-11-30T13:06:53.990Z,-1.20
2023-11-30T13:09:21.950Z,-1.20
2023-11-30T13:11:55.961Z,-1.20
2023-11-30T13:14:23.781Z,-1.20
2023-11-30T13:16:57.965Z,-1.30
2023-11-30T13:19:27.806Z,-1.40
2023-11-30T13:22:03.019Z,-1.40
2023-11-30T13:24:30.828Z,-1.40
2023-11-30T13:27:04.980Z,-1.50
2023-11-30T13:29:33.268Z,-1.60
2023-11-30T13:32:08.028Z,-1.60
2023-11-30T13:34:38.830Z,-1.60
2023-11-30T13:37:13.225Z,-1.60
2023-11-30T13:39:41.080Z,-1.70
2023-11-30T13:42:17.075Z,-1.70
2023-11-30T13:44:45.591Z,-1.70
2023-11-30T13:47:19.978Z,-1.70
2023-11-30T13:49:49.277Z,-1.70
2023-11-30T13:52:24.993Z,-1.80
2023-11-30T13:54:52.863Z,-1.80
2023-11-30T13:57:27.024Z,-1.80
2023-11-30T13:59:54.905Z,-1.90
2023-11-30T14:02:28.981Z,-1.90
2023-11-30T14:05:05.979Z,-1.90
2023-11-30T14:07:40.988Z,-2.00
2023-11-30T14:10:11.082Z,-2.00
2023-11-30T14:12:45.997Z,-2.10
2023-11-30T14:15:13.870Z,-2.10
2023-11-30T14:17:51.090Z,-2.10
2023-11-30T14:20:21.249Z,-2.10
2023-11-30T14:22:56.007Z,-2.10
2023-11-30T14:25:23.837Z,-2.20
2023-11-30T14:28:02.988Z,-2.20
2023-11-30T14:30:36.277Z,-2.20
2023-11-30T14:33:13.328Z,-2.30
2023-11-30T14:35:43.770Z,-2.30
2023-11-30T14:38:18.010Z,-2.30
2023-11-30T14:40:45.947Z,-2.30
2023-11-30T14:43:19.983Z,-2.40
2023-11-30T14:45:47.987Z,-2.40
2023-11-30T14:48:24.031Z,-2.40
2023-11-30T14:50:55.610Z,-2.50
2023-11-30T14:53:29.996Z,-2.50
2023-11-30T14:55:57.876Z,-2.50
2023-11-30T14:58:31.989Z,-2.50
2023-11-30T15:00:59.897Z,-2.50
2023-11-30T15:03:34.080Z,-2.60
2023-11-30T15:06:05.461Z,-2.60
2023-11-30T15:08:40.017Z,-2.70
2023-11-30T15:11:08.600Z,-2.70
2023-11-30T15:13:43.000Z,-2.80
2023-11-30T15:16:12.354Z,-2.80
2023-11-30T15:18:47.024Z,-2.90
2023-11-30T15:21:16.331Z,-3.10
2023-11-30T15:23:51.455Z,-3.30
2023-11-30T15:26:19.306Z,-3.40
2023-11-30T15:28:54.012Z,-3.40
2023-11-30T15:31:23.652Z,-3.30
2023-11-30T15:33:58.170Z,-3.40
2023-11-30T15:36:27.533Z,-3.50
2023-11-30T15:39:02.995Z,-3.60
2023-11-30T15:41:32.148Z,-3.70
2023-11-30T15:44:05.994Z,-3.80
2023-11-30T15:46:35.449Z,-3.80
2023-11-30T15:49:10.067Z,-3.80
2023-11-30T15:51:42.033Z,-3.90
2023-11-30T15:54:17.031Z,-4.00
2023-11-30T15:56:45.052Z,-4.10
2023-11-30T15:59:19.016Z,-4.10
2023-11-30T16:01:46.881Z,-4.00
2023-11-30T16:04:28.114Z,-3.90
2023-11-30T16:06:57.953Z,-3.90
2023-11-30T16:09:32.067Z,-3.70
2023-11-30T16:12:00.197Z,-3.70
2023-11-30T16:14:35.015Z,-3.70
2023-11-30T16:17:04.124Z,-3.60
2023-11-30T16:19:38.047Z,-3.60
2023-11-30T16:22:07.317Z,-3.50
2023-11-30T16:24:43.114Z,-3.50
2023-11-30T16:27:11.368Z,-3.50
2023-11-30T16:29:46.008Z,-3.40
2023-11-30T16:32:13.860Z,-3.40
2023-11-30T16:34:47.992Z,-3.30
2023-11-30T16:37:17.327Z,-3.30
2023-11-30T16:39:45.540Z,-3.30
2023-11-30T16:42:20.019Z,-3.30
2023-11-30T16:44:47.815Z,-3.30
2023-11-30T16:47:22.061Z,-3.20
2023-11-30T16:49:49.924Z,-3.20
2023-11-30T16:52:26.008Z,-3.20
2023-11-30T16:54:53.836Z,-3.10
2023-11-30T16:57:28.062Z,-3.10
2023-11-30T16:59:55.864Z,-3.10
2023-11-30T17:02:30.048Z,-3.00
2023-11-30T17:05:19.031Z,-3.00
2023-11-30T17:07:55.058Z,-2.90
2023-11-30T17:10:23.712Z,-2.90
2023-11-30T17:12:58.122Z,-2.90
2023-11-30T17:15:26.014Z,-2.90
2023-11-30T17:18:01.073Z,-2.90
2023-11-30T17:20:28.942Z,-2.80
2023-11-30T17:23:05.052Z,-2.80
2023-11-30T17:25:33.031Z,-2.70
2023-11-30T17:28:07.032Z,-2.70
2023-11-30T17:30:35.232Z,-2.70
2023-11-30T17:33:10.121Z,-2.80
2023-11-30T17:35:38.155Z,-2.70
2023-11-30T17:38:14.047Z,-2.70
2023-11-30T17:40:41.973Z,-2.70
2023-11-30T17:43:16.034Z,-2.70
2023-11-30T17:45:43.855Z,-2.80
2023-11-30T17:48:18.074Z,-2.80
2023-11-30T17:50:45.919Z,-2.90
2023-11-30T17:53:22.014Z,-2.90
2023-11-30T17:55:49.853Z,-3.00
2023-11-30T17:58:24.031Z,-3.00
2023-11-30T18:00:55.420Z,-3.20
2023-11-30T18:03:32.090Z,-3.30
2023-11-30T18:06:10.287Z,-3.40
2023-11-30T18:08:46.216Z,-3.50
2023-11-30T18:11:14.320Z,-3.60
2023-11-30T18:13:49.036Z,-3.70
2023-11-30T18:16:17.032Z,-3.70
2023-11-30T18:18:51.094Z,-3.80
2023-11-30T18:21:19.089Z,-3.80
2023-11-30T18:23:55.045Z,-3.90
2023-11-30T18:26:24.285Z,-3.90
2023-11-30T18:29:00.060Z,-4.00
2023-11-30T18:31:27.945Z,-4.00
2023-11-30T18:34:02.100Z,-4.00
2023-11-30T18:36:29.955Z,-4.10
2023-11-30T18:39:06.063Z,-4.10
2023-11-30T18:41:34.762Z,-4.10
2023-11-30T18:44:09.066Z,-4.00
2023-11-30T18:46:37.336Z,-4.00
2023-11-30T18:49:12.066Z,-4.10
2023-11-30T18:51:39.930Z,-4.10
2023-11-30T18:54:17.946Z,-4.10
2023-11-30T18:56:46.875Z,-4.20
2023-11-30T18:59:21.054Z,-4.10
2023-11-30T19:01:49.708Z,-4.10
2023-11-30T19:04:24.122Z,-4.20
2023-11-30T19:06:58.295Z,-4.20
2023-11-30T19:09:34.081Z,-4.30
2023-11-30T19:12:01.947Z,-4.40
2023-11-30T19:14:37.791Z,-4.50
2023-11-30T19:17:06.963Z,-4.50
2023-11-30T19:19:41.197Z,-4.40
2023-11-30T19:22:09.095Z,-4.50
2023-11-30T19:24:46.096Z,-4.60
2023-11-30T19:27:13.928Z,-4.60
2023-11-30T19:29:49.059Z,-4.60
2023-11-30T19:32:16.939Z,-4.60
2023-11-30T19:34:51.062Z,-4.70
2023-11-30T19:37:19.144Z,-4.70
2023-11-30T19:39:55.081Z,-4.70
2023-11-30T19:42:25.139Z,-4.70
2023-11-30T19:44:59.061Z,-4.80
2023-11-30T19:47:26.928Z,-4.80
2023-11-30T19:50:01.068Z,-4.90
2023-11-30T19:52:29.193Z,-4.90
2023-11-30T19:55:07.167Z,-5.00
2023-11-30T19:57:35.817Z,-5.00
2023-11-30T20:00:13.069Z,-5.00
2023-11-30T20:02:41.037Z,-5.10
2023-11-30T20:05:24.176Z,-5.20
2023-11-30T20:07:52.009Z,-5.20
2023-11-30T20:10:28.074Z,-5.40
2023-11-30T20:12:56.694Z,-5.60
2023-11-30T20:15:31.595Z,-5.70
2023-11-30T20:17:59.641Z,-5.90
2023-11-30T20:20:34.080Z,-6.10
2023-11-30T20:23:03.296Z,-6.20
2023-11-30T20:25:39.080Z,-6.20
2023-11-30T20:28:06.903Z,-6.10
2023-11-30T20:30:41.379Z,-6.20
2023-11-30T20:33:09.262Z,-6.20
2023-11-30T20:35:44.079Z,-6.30
2023-11-30T20:38:12.904Z,-6.30
2023-11-30T20:40:48.067Z,-6.30
2023-11-30T20:43:15.855Z,-6.20
2023-11-30T20:45:50.203Z,-6.20
2023-11-30T20:48:18.315Z,-6.30
2023-11-30T20:50:53.080Z,-6.40
2023-11-30T20:53:20.893Z,-6.60
2023-11-30T20:55:56.090Z,-6.90
2023-11-30T20:58:37.892Z,-7.00
2023-11-30T21:01:13.262Z,-7.30
2023-11-30T21:04:01.189Z,-7.90
2023-11-30T21:06:35.087Z,-8.20
2023-11-30T21:09:03.107Z,-8.50
2023-11-30T21:11:39.110Z,-8.80
2023-11-30T21:14:08.642Z,-8.90
2023-11-30T21:16:43.121Z,-8.90
2023-11-30T21:19:10.999Z,-9.00
2023-11-30T21:21:47.247Z,-9.00
2023-11-30T21:24:15.750Z,-8.70
2023-11-30T21:26:52.083Z,-8.90
2023-11-30T21:29:20.945Z,-9.10
2023-11-30T21:31:55.145Z,-9.10
2023-11-30T21:34:22.961Z,-8.90
2023-11-30T21:36:57.143Z,-8.50
2023-11-30T21:39:27.117Z,-8.30
2023-11-30T21:42:03.069Z,-8.20
2023-11-30T21:44:30.901Z,-7.90
2023-11-30T21:47:05.305Z,-7.90
2023-11-30T21:49:33.127Z,-7.70
2023-11-30T21:52:08.199Z,-7.60
2023-11-30T21:54:36.119Z,-7.30
2023-11-30T21:57:12.225Z,-7.00
2023-11-30T21:59:40.049Z,-6.80
2023-11-30T22:02:14.236Z,-6.80
2023-11-30T22:04:49.110Z,-6.80
2023-11-30T22:07:24.085Z,-6.90
2023-11-30T22:09:51.880Z,-6.90
2023-11-30T22:12:27.138Z,-6.90
2023-11-30T22:14:54.970Z,-7.00
2023-11-30T22:17:22.770Z,-7.20
2023-11-30T22:19:57.093Z,-7.20
2023-11-30T22:22:24.936Z,-7.20
2023-11-30T22:24:59.151Z,-7.20
2023-11-30T22:27:28.373Z,-7.20
2023-11-30T22:30:03.125Z,-7.40
2023-11-30T22:32:31.489Z,-7.50
2023-11-30T22:35:06.133Z,-7.40
2023-11-30T22:37:34.007Z,-7.30
2023-11-30T22:40:08.145Z,-7.20
2023-11-30T22:42:37.269Z,-7.20
2023-11-30T22:45:12.103Z,-7.30
2023-11-30T22:47:39.887Z,-7.30
2023-11-30T22:50:16.189Z,-7.40
2023-11-30T22:52:44.474Z,-7.50
2023-11-30T22:55:19.178Z,-7.60
2023-11-30T22:57:48.468Z,-7.90
2023-11-30T23:00:27.244Z,-8.40
2023-11-30T23:02:55.385Z,-8.50
2023-11-30T23:05:30.163Z,-8.60
2023-11-30T23:07:58.050Z,-8.70
2023-11-30T23:10:32.115Z,-8.80
2023-11-30T23:13:01.725Z,-8.70
2023-11-30T23:15:36.152Z,-8.60
2023-11-30T23:18:04.053Z,-8.50
2023-11-30T23:20:38.137Z,-8.30
2023-11-30T23:23:06.112Z,-8.30
2023-11-30T23:25:40.106Z,-8.20
2023-11-30T23:28:09.272Z,-8.10
2023-11-30T23:30:44.470Z,-7.90
2023-11-30T23:33:12.711Z,-7.90
2023-11-30T23:35:47.112Z,-8.00
2023-11-30T23:38:15.007Z,-7.90
2023-11-30T23:40:49.128Z,-7.90
2023-11-30T23:43:19.164Z,-7.90
2023-11-30T23:45:53.154Z,-7.90
2023-11-30T23:48:20.955Z,-7.80
2023-11-30T23:50:55.113Z,-8.00
2023-11-30T23:53:22.908Z,-8.20
2023-11-30T23:55:57.127Z,-8.40
2023-11-30T23:58:26.343Z,-8.40
